sensor_id;sensor_type;location;lat;lon;timestamp;P1;durP1;ratioP1;P2;durP2;ratioP2
14550;SDS011;7362;50.956;4.184;2022-09-13T00:01:02;6.95;;;4.82;;
14550;SDS011;7362;50.956;4.184;2022-09-13T00:03:34;6.82;;;4.78;;
14550;SDS011;7362;50.956;4.184;2022-09-13T00:06:10;6.53;;;4.63;;
14550;SDS011;7362;50.956;4.184;2022-09-13T00:11:27;4.93;;;3.05;;
14550;SDS011;7362;50.956;4.184;2022-09-13T00:13:55;4.72;;;2.83;;
14550;SDS011;7362;50.956;4.184;2022-09-13T00:16:22;7.25;;;4.40;;
14550;SDS011;7362;50.956;4.184;2022-09-13T00:18:50;5.82;;;4.05;;
14550;SDS011;7362;50.956;4.184;2022-09-13T00:21:18;7.03;;;3.10;;
14550;SDS011;7362;50.956;4.184;2022-09-13T00:23:46;5.50;;;3.70;;
14550;SDS011;7362;50.956;4.184;2022-09-13T00:26:17;4.93;;;2.90;;
14550;SDS011;7362;50.956;4.184;2022-09-13T00:28:44;3.25;;;2.55;;
14550;SDS011;7362;50.956;4.184;2022-09-13T00:31:15;4.18;;;2.50;;
14550;SDS011;7362;50.956;4.184;2022-09-13T00:33:41;5.95;;;2.70;;
14550;SDS011;7362;50.956;4.184;2022-09-13T00:36:09;6.95;;;2.85;;
14550;SDS011;7362;50.956;4.184;2022-09-13T00:38:40;2.33;;;1.80;;
14550;SDS011;7362;50.956;4.184;2022-09-13T00:41:14;5.93;;;2.28;;
14550;SDS011;7362;50.956;4.184;2022-09-13T00:43:44;2.40;;;1.80;;
14550;SDS011;7362;50.956;4.184;2022-09-13T00:46:34;3.63;;;2.13;;
14550;SDS011;7362;50.956;4.184;2022-09-13T00:49:18;2.30;;;2.00;;
14550;SDS011;7362;50.956;4.184;2022-09-13T00:51:51;4.75;;;1.75;;
14550;SDS011;7362;50.956;4.184;2022-09-13T00:54:25;3.90;;;2.10;;
14550;SDS011;7362;50.956;4.184;2022-09-13T00:57:11;2.22;;;1.77;;
14550;SDS011;7362;50.956;4.184;2022-09-13T00:59:41;4.93;;;2.33;;
14550;SDS011;7362;50.956;4.184;2022-09-13T01:05:02;4.40;;;1.88;;
14550;SDS011;7362;50.956;4.184;2022-09-13T01:07:40;2.25;;;1.50;;
14550;SDS011;7362;50.956;4.184;2022-09-13T01:10:06;2.83;;;1.40;;
14550;SDS011;7362;50.956;4.184;2022-09-13T01:12:43;2.83;;;1.63;;
14550;SDS011;7362;50.956;4.184;2022-09-13T01:15:30;1.85;;;1.45;;
14550;SDS011;7362;50.956;4.184;2022-09-13T01:17:56;2.45;;;1.70;;
14550;SDS011;7362;50.956;4.184;2022-09-13T01:20:24;3.20;;;1.80;;
14550;SDS011;7362;50.956;4.184;2022-09-13T01:23:08;3.25;;;1.55;;
14550;SDS011;7362;50.956;4.184;2022-09-13T01:37:05;3.40;;;1.30;;
14550;SDS011;7362;50.956;4.184;2022-09-13T01:40:04;3.45;;;1.45;;
14550;SDS011;7362;50.956;4.184;2022-09-13T01:55:44;2.95;;;1.48;;
14550;SDS011;7362;50.956;4.184;2022-09-13T01:58:29;2.45;;;1.48;;
14550;SDS011;7362;50.956;4.184;2022-09-13T02:04:20;2.60;;;1.30;;
14550;SDS011;7362;50.956;4.184;2022-09-13T02:07:02;8.23;;;1.73;;
14550;SDS011;7362;50.956;4.184;2022-09-13T02:09:33;2.10;;;1.23;;
14550;SDS011;7362;50.956;4.184;2022-09-13T02:12:08;2.17;;;1.40;;
14550;SDS011;7362;50.956;4.184;2022-09-13T02:14:42;6.20;;;1.90;;
14550;SDS011;7362;50.956;4.184;2022-09-13T02:17:17;2.35;;;1.50;;
14550;SDS011;7362;50.956;4.184;2022-09-13T02:22:35;3.45;;;1.40;;
14550;SDS011;7362;50.956;4.184;2022-09-13T02:25:08;3.63;;;1.50;;
14550;SDS011;7362;50.956;4.184;2022-09-13T02:27:38;2.58;;;1.40;;
14550;SDS011;7362;50.956;4.184;2022-09-13T02:30:10;1.60;;;1.30;;
14550;SDS011;7362;50.956;4.184;2022-09-13T02:35:11;2.90;;;1.60;;
14550;SDS011;7362;50.956;4.184;2022-09-13T02:37:43;5.10;;;1.83;;
14550;SDS011;7362;50.956;4.184;2022-09-13T02:40:14;2.75;;;1.70;;
14550;SDS011;7362;50.956;4.184;2022-09-13T02:42:49;3.55;;;2.10;;
14550;SDS011;7362;50.956;4.184;2022-09-13T02:45:24;3.30;;;1.85;;
14550;SDS011;7362;50.956;4.184;2022-09-13T02:48:03;5.40;;;2.42;;
14550;SDS011;7362;50.956;4.184;2022-09-13T02:50:57;3.60;;;2.47;;
14550;SDS011;7362;50.956;4.184;2022-09-13T02:58:49;2.80;;;1.90;;
14550;SDS011;7362;50.956;4.184;2022-09-13T03:01:29;3.47;;;1.98;;
14550;SDS011;7362;50.956;4.184;2022-09-13T03:03:56;3.30;;;2.13;;
14550;SDS011;7362;50.956;4.184;2022-09-13T03:06:26;4.60;;;1.88;;
14550;SDS011;7362;50.956;4.184;2022-09-13T03:08:57;2.97;;;2.10;;
14550;SDS011;7362;50.956;4.184;2022-09-13T03:11:31;2.25;;;1.85;;
14550;SDS011;7362;50.956;4.184;2022-09-13T03:20:08;2.05;;;1.58;;
14550;SDS011;7362;50.956;4.184;2022-09-13T03:22:42;2.47;;;1.80;;
14550;SDS011;7362;50.956;4.184;2022-09-13T03:30:34;4.00;;;2.05;;
14550;SDS011;7362;50.956;4.184;2022-09-13T03:36:22;3.38;;;1.88;;
14550;SDS011;7362;50.956;4.184;2022-09-13T03:39:06;5.07;;;2.22;;
14550;SDS011;7362;50.956;4.184;2022-09-13T03:41:46;5.03;;;2.38;;
14550;SDS011;7362;50.956;4.184;2022-09-13T03:44:16;3.55;;;2.20;;
14550;SDS011;7362;50.956;4.184;2022-09-13T03:46:54;2.15;;;1.88;;
14550;SDS011;7362;50.956;4.184;2022-09-13T03:52:33;2.60;;;1.50;;
14550;SDS011;7362;50.956;4.184;2022-09-13T03:55:25;3.00;;;1.85;;
14550;SDS011;7362;50.956;4.184;2022-09-13T03:57:59;3.40;;;1.50;;
14550;SDS011;7362;50.956;4.184;2022-09-13T04:00:25;3.90;;;1.60;;
14550;SDS011;7362;50.956;4.184;2022-09-13T04:02:51;1.90;;;1.70;;
14550;SDS011;7362;50.956;4.184;2022-09-13T04:05:16;3.60;;;1.85;;
14550;SDS011;7362;50.956;4.184;2022-09-13T04:07:42;2.95;;;1.58;;
14550;SDS011;7362;50.956;4.184;2022-09-13T04:10:08;2.13;;;1.55;;
14550;SDS011;7362;50.956;4.184;2022-09-13T04:12:35;4.95;;;1.73;;
14550;SDS011;7362;50.956;4.184;2022-09-13T04:15:01;4.68;;;1.67;;
14550;SDS011;7362;50.956;4.184;2022-09-13T04:17:28;3.65;;;1.55;;
14550;SDS011;7362;50.956;4.184;2022-09-13T04:19:54;4.97;;;1.80;;
14550;SDS011;7362;50.956;4.184;2022-09-13T04:22:19;3.10;;;1.83;;
14550;SDS011;7362;50.956;4.184;2022-09-13T04:24:45;4.15;;;2.17;;
14550;SDS011;7362;50.956;4.184;2022-09-13T04:27:11;4.60;;;1.98;;
14550;SDS011;7362;50.956;4.184;2022-09-13T04:29:37;7.00;;;2.17;;
14550;SDS011;7362;50.956;4.184;2022-09-13T04:32:02;3.20;;;1.63;;
14550;SDS011;7362;50.956;4.184;2022-09-13T04:34:28;3.78;;;2.03;;
14550;SDS011;7362;50.956;4.184;2022-09-13T04:36:54;5.20;;;2.72;;
14550;SDS011;7362;50.956;4.184;2022-09-13T04:39:20;5.25;;;2.45;;
14550;SDS011;7362;50.956;4.184;2022-09-13T04:41:46;3.75;;;2.22;;
14550;SDS011;7362;50.956;4.184;2022-09-13T04:44:16;6.07;;;2.42;;
14550;SDS011;7362;50.956;4.184;2022-09-13T04:46:42;2.92;;;2.30;;
14550;SDS011;7362;50.956;4.184;2022-09-13T04:49:12;3.75;;;1.70;;
14550;SDS011;7362;50.956;4.184;2022-09-13T04:51:38;8.30;;;2.35;;
14550;SDS011;7362;50.956;4.184;2022-09-13T04:54:04;4.20;;;2.10;;
14550;SDS011;7362;50.956;4.184;2022-09-13T04:56:30;4.95;;;2.20;;
14550;SDS011;7362;50.956;4.184;2022-09-13T04:58:56;7.75;;;2.83;;
14550;SDS011;7362;50.956;4.184;2022-09-13T05:01:22;6.70;;;2.40;;
14550;SDS011;7362;50.956;4.184;2022-09-13T05:03:49;5.25;;;2.70;;
14550;SDS011;7362;50.956;4.184;2022-09-13T05:06:18;7.45;;;3.28;;
14550;SDS011;7362;50.956;4.184;2022-09-13T05:08:52;4.25;;;2.70;;
14550;SDS011;7362;50.956;4.184;2022-09-13T05:11:23;4.63;;;2.95;;
14550;SDS011;7362;50.956;4.184;2022-09-13T05:13:50;4.22;;;2.40;;
14550;SDS011;7362;50.956;4.184;2022-09-13T05:16:20;2.90;;;2.10;;
14550;SDS011;7362;50.956;4.184;2022-09-13T05:18:46;3.67;;;2.47;;
14550;SDS011;7362;50.956;4.184;2022-09-13T05:21:12;5.43;;;2.35;;
14550;SDS011;7362;50.956;4.184;2022-09-13T05:23:38;6.38;;;2.60;;
14550;SDS011;7362;50.956;4.184;2022-09-13T05:26:11;5.93;;;3.03;;
14550;SDS011;7362;50.956;4.184;2022-09-13T05:28:37;5.28;;;3.03;;
14550;SDS011;7362;50.956;4.184;2022-09-13T05:31:06;5.40;;;2.90;;
14550;SDS011;7362;50.956;4.184;2022-09-13T05:34:00;5.18;;;2.80;;
14550;SDS011;7362;50.956;4.184;2022-09-13T05:36:29;6.75;;;2.90;;
14550;SDS011;7362;50.956;4.184;2022-09-13T05:38:55;4.45;;;2.90;;
14550;SDS011;7362;50.956;4.184;2022-09-13T05:41:21;4.35;;;2.47;;
14550;SDS011;7362;50.956;4.184;2022-09-13T05:43:47;4.90;;;3.10;;
14550;SDS011;7362;50.956;4.184;2022-09-13T05:46:14;5.35;;;2.50;;
14550;SDS011;7362;50.956;4.184;2022-09-13T05:48:43;4.35;;;2.47;;
14550;SDS011;7362;50.956;4.184;2022-09-13T05:51:13;9.05;;;2.80;;
14550;SDS011;7362;50.956;4.184;2022-09-13T05:53:42;2.75;;;2.03;;
14550;SDS011;7362;50.956;4.184;2022-09-13T05:56:12;4.88;;;2.83;;
14550;SDS011;7362;50.956;4.184;2022-09-13T05:58:50;12.75;;;2.83;;
14550;SDS011;7362;50.956;4.184;2022-09-13T06:01:20;4.78;;;2.15;;
14550;SDS011;7362;50.956;4.184;2022-09-13T06:03:50;4.18;;;2.47;;
14550;SDS011;7362;50.956;4.184;2022-09-13T06:06:17;5.40;;;2.47;;
14550;SDS011;7362;50.956;4.184;2022-09-13T06:08:44;5.10;;;2.42;;
14550;SDS011;7362;50.956;4.184;2022-09-13T06:11:17;7.95;;;2.58;;
14550;SDS011;7362;50.956;4.184;2022-09-13T06:14:00;8.23;;;2.80;;
14550;SDS011;7362;50.956;4.184;2022-09-13T06:29:21;7.70;;;3.63;;
14550;SDS011;7362;50.956;4.184;2022-09-13T06:31:47;5.18;;;2.85;;
14550;SDS011;7362;50.956;4.184;2022-09-13T06:34:13;6.68;;;3.20;;
14550;SDS011;7362;50.956;4.184;2022-09-13T06:39:13;11.35;;;3.28;;
14550;SDS011;7362;50.956;4.184;2022-09-13T06:44:42;4.05;;;2.63;;
14550;SDS011;7362;50.956;4.184;2022-09-13T06:47:10;9.10;;;2.97;;
14550;SDS011;7362;50.956;4.184;2022-09-13T06:49:53;5.35;;;3.13;;
14550;SDS011;7362;50.956;4.184;2022-09-13T06:52:25;11.70;;;3.03;;
14550;SDS011;7362;50.956;4.184;2022-09-13T06:54:52;7.35;;;3.35;;
14550;SDS011;7362;50.956;4.184;2022-09-13T06:57:29;6.70;;;4.80;;
14550;SDS011;7362;50.956;4.184;2022-09-13T07:00:06;8.25;;;3.13;;
14550;SDS011;7362;50.956;4.184;2022-09-13T07:02:40;5.10;;;2.78;;
14550;SDS011;7362;50.956;4.184;2022-09-13T07:05:08;6.93;;;3.10;;
14550;SDS011;7362;50.956;4.184;2022-09-13T07:07:43;7.53;;;2.88;;
14550;SDS011;7362;50.956;4.184;2022-09-13T07:10:12;7.53;;;3.42;;
14550;SDS011;7362;50.956;4.184;2022-09-13T07:12:41;7.35;;;3.65;;
14550;SDS011;7362;50.956;4.184;2022-09-13T07:17:38;9.45;;;3.92;;
14550;SDS011;7362;50.956;4.184;2022-09-13T07:20:04;9.73;;;3.50;;
14550;SDS011;7362;50.956;4.184;2022-09-13T07:22:31;9.48;;;3.75;;
14550;SDS011;7362;50.956;4.184;2022-09-13T07:24:57;5.13;;;3.50;;
14550;SDS011;7362;50.956;4.184;2022-09-13T07:27:24;5.18;;;3.42;;
14550;SDS011;7362;50.956;4.184;2022-09-13T07:29:50;4.55;;;2.92;;
14550;SDS011;7362;50.956;4.184;2022-09-13T07:32:16;5.60;;;3.17;;
14550;SDS011;7362;50.956;4.184;2022-09-13T07:34:41;7.45;;;3.53;;
14550;SDS011;7362;50.956;4.184;2022-09-13T07:37:07;9.27;;;3.75;;
14550;SDS011;7362;50.956;4.184;2022-09-13T07:39:33;6.18;;;3.35;;
14550;SDS011;7362;50.956;4.184;2022-09-13T07:41:58;9.63;;;3.42;;
14550;SDS011;7362;50.956;4.184;2022-09-13T07:44:24;5.22;;;3.47;;
14550;SDS011;7362;50.956;4.184;2022-09-13T07:46:50;8.10;;;3.40;;
14550;SDS011;7362;50.956;4.184;2022-09-13T07:49:17;9.57;;;3.30;;
14550;SDS011;7362;50.956;4.184;2022-09-13T07:51:44;7.53;;;3.80;;
14550;SDS011;7362;50.956;4.184;2022-09-13T07:54:14;8.55;;;3.95;;
14550;SDS011;7362;50.956;4.184;2022-09-13T07:56:44;5.78;;;3.30;;
14550;SDS011;7362;50.956;4.184;2022-09-13T07:59:13;7.20;;;4.25;;
14550;SDS011;7362;50.956;4.184;2022-09-13T08:01:44;8.25;;;4.18;;
14550;SDS011;7362;50.956;4.184;2022-09-13T08:04:15;7.57;;;3.75;;
14550;SDS011;7362;50.956;4.184;2022-09-13T08:06:48;6.68;;;3.75;;
14550;SDS011;7362;50.956;4.184;2022-09-13T08:09:14;9.82;;;4.50;;
14550;SDS011;7362;50.956;4.184;2022-09-13T08:11:48;7.35;;;3.92;;
14550;SDS011;7362;50.956;4.184;2022-09-13T08:14:17;9.05;;;4.18;;
14550;SDS011;7362;50.956;4.184;2022-09-13T08:16:44;9.90;;;4.07;;
14550;SDS011;7362;50.956;4.184;2022-09-13T08:19:14;6.47;;;4.32;;
14550;SDS011;7362;50.956;4.184;2022-09-13T08:21:41;8.75;;;4.55;;
14550;SDS011;7362;50.956;4.184;2022-09-13T08:24:10;8.45;;;3.85;;
14550;SDS011;7362;50.956;4.184;2022-09-13T08:26:45;7.18;;;4.32;;
14550;SDS011;7362;50.956;4.184;2022-09-13T08:31:40;9.07;;;4.35;;
14550;SDS011;7362;50.956;4.184;2022-09-13T08:34:09;7.55;;;3.65;;
14550;SDS011;7362;50.956;4.184;2022-09-13T08:36:49;8.13;;;4.43;;
14550;SDS011;7362;50.956;4.184;2022-09-13T08:39:17;7.88;;;4.18;;
14550;SDS011;7362;50.956;4.184;2022-09-13T09:07:56;7.30;;;4.80;;
14550;SDS011;7362;50.956;4.184;2022-09-13T09:10:34;10.52;;;4.32;;
14550;SDS011;7362;50.956;4.184;2022-09-13T09:15:47;10.55;;;5.03;;
14550;SDS011;7362;50.956;4.184;2022-09-13T09:18:17;8.43;;;4.78;;
14550;SDS011;7362;50.956;4.184;2022-09-13T09:20:52;9.25;;;5.03;;
14550;SDS011;7362;50.956;4.184;2022-09-13T09:23:25;6.32;;;4.07;;
14550;SDS011;7362;50.956;4.184;2022-09-13T09:26:10;9.20;;;4.55;;
14550;SDS011;7362;50.956;4.184;2022-09-13T09:40:45;6.75;;;3.40;;
14550;SDS011;7362;50.956;4.184;2022-09-13T09:43:17;8.07;;;3.75;;
14550;SDS011;7362;50.956;4.184;2022-09-13T09:45:50;7.43;;;3.33;;
14550;SDS011;7362;50.956;4.184;2022-09-13T09:48:44;7.00;;;4.07;;
14550;SDS011;7362;50.956;4.184;2022-09-13T09:51:17;9.90;;;3.70;;
14550;SDS011;7362;50.956;4.184;2022-09-13T09:53:45;13.10;;;3.70;;
14550;SDS011;7362;50.956;4.184;2022-09-13T09:56:20;9.70;;;3.30;;
14550;SDS011;7362;50.956;4.184;2022-09-13T10:06:37;11.35;;;4.43;;
14550;SDS011;7362;50.956;4.184;2022-09-13T10:09:21;7.60;;;3.47;;
14550;SDS011;7362;50.956;4.184;2022-09-13T10:14:50;10.25;;;4.00;;
14550;SDS011;7362;50.956;4.184;2022-09-13T10:20:58;7.72;;;3.67;;
14550;SDS011;7362;50.956;4.184;2022-09-13T10:23:24;5.50;;;4.63;;
14550;SDS011;7362;50.956;4.184;2022-09-13T10:37:39;8.82;;;4.45;;
14550;SDS011;7362;50.956;4.184;2022-09-13T10:52:51;6.78;;;3.50;;
14550;SDS011;7362;50.956;4.184;2022-09-13T10:55:38;9.93;;;3.55;;
14550;SDS011;7362;50.956;4.184;2022-09-13T11:00:48;8.50;;;3.80;;
14550;SDS011;7362;50.956;4.184;2022-09-13T11:03:46;9.40;;;2.80;;
14550;SDS011;7362;50.956;4.184;2022-09-13T11:06:57;6.35;;;3.10;;
14550;SDS011;7362;50.956;4.184;2022-09-13T11:18:34;8.02;;;3.10;;
14550;SDS011;7362;50.956;4.184;2022-09-13T11:24:10;8.25;;;4.03;;
14550;SDS011;7362;50.956;4.184;2022-09-13T11:29:46;5.45;;;3.30;;
14550;SDS011;7362;50.956;4.184;2022-09-13T11:35:18;7.15;;;3.85;;
14550;SDS011;7362;50.956;4.184;2022-09-13T11:40:45;5.95;;;3.65;;
14550;SDS011;7362;50.956;4.184;2022-09-13T11:43:43;5.95;;;3.63;;
14550;SDS011;7362;50.956;4.184;2022-09-13T11:57:30;3.90;;;2.97;;
14550;SDS011;7362;50.956;4.184;2022-09-13T12:00:14;6.70;;;3.10;;
14550;SDS011;7362;50.956;4.184;2022-09-13T12:05:31;5.68;;;3.03;;
14550;SDS011;7362;50.956;4.184;2022-09-13T12:08:05;5.53;;;3.22;;
14550;SDS011;7362;50.956;4.184;2022-09-13T12:10:56;3.90;;;3.15;;
14550;SDS011;7362;50.956;4.184;2022-09-13T12:13:40;6.07;;;2.75;;
14550;SDS011;7362;50.956;4.184;2022-09-13T12:16:15;8.15;;;3.78;;
14550;SDS011;7362;50.956;4.184;2022-09-13T12:18:49;5.75;;;3.22;;
14550;SDS011;7362;50.956;4.184;2022-09-13T12:21:20;4.10;;;2.75;;
14550;SDS011;7362;50.956;4.184;2022-09-13T12:23:54;4.10;;;2.80;;
14550;SDS011;7362;50.956;4.184;2022-09-13T12:26:40;4.38;;;3.05;;
14550;SDS011;7362;50.956;4.184;2022-09-13T12:29:18;6.65;;;3.25;;
14550;SDS011;7362;50.956;4.184;2022-09-13T12:31:55;4.80;;;3.22;;
14550;SDS011;7362;50.956;4.184;2022-09-13T12:34:28;7.78;;;3.20;;
14550;SDS011;7362;50.956;4.184;2022-09-13T12:37:09;3.83;;;3.20;;
14550;SDS011;7362;50.956;4.184;2022-09-13T12:39:47;6.75;;;3.35;;
14550;SDS011;7362;50.956;4.184;2022-09-13T12:42:23;4.65;;;3.20;;
14550;SDS011;7362;50.956;4.184;2022-09-13T12:45:13;3.88;;;2.92;;
14550;SDS011;7362;50.956;4.184;2022-09-13T12:51:06;3.53;;;2.20;;
14550;SDS011;7362;50.956;4.184;2022-09-13T13:05:06;4.25;;;3.25;;
14550;SDS011;7362;50.956;4.184;2022-09-13T13:13:43;5.20;;;3.38;;
14550;SDS011;7362;50.956;4.184;2022-09-13T13:16:28;7.60;;;3.30;;
14550;SDS011;7362;50.956;4.184;2022-09-13T13:19:03;7.53;;;3.58;;
14550;SDS011;7362;50.956;4.184;2022-09-13T13:21:50;4.40;;;3.67;;
14550;SDS011;7362;50.956;4.184;2022-09-13T13:26:53;6.68;;;3.95;;
14550;SDS011;7362;50.956;4.184;2022-09-13T13:33:12;7.70;;;4.40;;
14550;SDS011;7362;50.956;4.184;2022-09-13T13:35:45;7.35;;;4.55;;
14550;SDS011;7362;50.956;4.184;2022-09-13T13:44:56;12.23;;;4.82;;
14550;SDS011;7362;50.956;4.184;2022-09-13T13:46:52;6.28;;;4.32;;
14550;SDS011;7362;50.956;4.184;2022-09-13T13:49:43;6.35;;;4.13;;
14550;SDS011;7362;50.956;4.184;2022-09-13T13:57:27;26.17;;;23.02;;
14550;SDS011;7362;50.956;4.184;2022-09-13T14:09:05;7.57;;;4.90;;
14550;SDS011;7362;50.956;4.184;2022-09-13T14:17:25;6.43;;;4.80;;
14550;SDS011;7362;50.956;4.184;2022-09-13T14:21:00;9.00;;;5.07;;
14550;SDS011;7362;50.956;4.184;2022-09-13T14:23:35;6.75;;;4.10;;
14550;SDS011;7362;50.956;4.184;2022-09-13T14:26:02;6.55;;;4.28;;
14550;SDS011;7362;50.956;4.184;2022-09-13T14:28:38;7.65;;;4.15;;
14550;SDS011;7362;50.956;4.184;2022-09-13T14:31:13;6.10;;;3.83;;
14550;SDS011;7362;50.956;4.184;2022-09-13T14:33:45;5.95;;;4.15;;
14550;SDS011;7362;50.956;4.184;2022-09-13T14:36:20;4.60;;;3.88;;
14550;SDS011;7362;50.956;4.184;2022-09-13T14:38:50;6.28;;;5.00;;
14550;SDS011;7362;50.956;4.184;2022-09-13T14:41:31;7.20;;;4.85;;
14550;SDS011;7362;50.956;4.184;2022-09-13T14:44:21;7.15;;;5.07;;
14550;SDS011;7362;50.956;4.184;2022-09-13T14:46:55;9.73;;;5.00;;
14550;SDS011;7362;50.956;4.184;2022-09-13T14:52:54;7.05;;;4.45;;
14550;SDS011;7362;50.956;4.184;2022-09-13T14:55:29;7.53;;;4.40;;
14550;SDS011;7362;50.956;4.184;2022-09-13T14:58:24;5.55;;;4.13;;
14550;SDS011;7362;50.956;4.184;2022-09-13T15:06:00;7.72;;;4.65;;
14550;SDS011;7362;50.956;4.184;2022-09-13T15:11:13;7.80;;;5.13;;
14550;SDS011;7362;50.956;4.184;2022-09-13T15:13:41;5.40;;;4.15;;
14550;SDS011;7362;50.956;4.184;2022-09-13T15:22:05;7.00;;;5.00;;
14550;SDS011;7362;50.956;4.184;2022-09-13T15:24:44;6.57;;;5.50;;
14550;SDS011;7362;50.956;4.184;2022-09-13T15:39:25;8.73;;;5.13;;
14550;SDS011;7362;50.956;4.184;2022-09-13T15:41:57;6.05;;;5.35;;
14550;SDS011;7362;50.956;4.184;2022-09-13T15:44:24;6.50;;;5.20;;
14550;SDS011;7362;50.956;4.184;2022-09-13T15:46:58;7.95;;;5.40;;
14550;SDS011;7362;50.956;4.184;2022-09-13T15:49:34;10.68;;;7.75;;
14550;SDS011;7362;50.956;4.184;2022-09-13T15:52:04;9.20;;;6.05;;
14550;SDS011;7362;50.956;4.184;2022-09-13T15:54:31;9.00;;;5.75;;
14550;SDS011;7362;50.956;4.184;2022-09-13T15:57:07;9.10;;;5.95;;
14550;SDS011;7362;50.956;4.184;2022-09-13T15:59:37;8.38;;;5.43;;
14550;SDS011;7362;50.956;4.184;2022-09-13T16:02:15;9.05;;;6.22;;
14550;SDS011;7362;50.956;4.184;2022-09-13T16:04:49;7.50;;;5.85;;
14550;SDS011;7362;50.956;4.184;2022-09-13T16:07:16;7.72;;;6.47;;
14550;SDS011;7362;50.956;4.184;2022-09-13T16:12:19;10.30;;;7.40;;
14550;SDS011;7362;50.956;4.184;2022-09-13T16:14:50;8.32;;;6.85;;
14550;SDS011;7362;50.956;4.184;2022-09-13T16:17:20;7.57;;;6.13;;
14550;SDS011;7362;50.956;4.184;2022-09-13T16:19:48;8.38;;;6.07;;
14550;SDS011;7362;50.956;4.184;2022-09-13T16:22:17;8.13;;;6.22;;
14550;SDS011;7362;50.956;4.184;2022-09-13T16:24:42;12.07;;;9.57;;
14550;SDS011;7362;50.956;4.184;2022-09-13T16:27:11;9.90;;;7.72;;
14550;SDS011;7362;50.956;4.184;2022-09-13T16:29:38;10.13;;;7.57;;
14550;SDS011;7362;50.956;4.184;2022-09-13T16:32:04;8.15;;;6.60;;
14550;SDS011;7362;50.956;4.184;2022-09-13T16:34:29;8.68;;;6.63;;
14550;SDS011;7362;50.956;4.184;2022-09-13T16:36:56;9.13;;;7.45;;
14550;SDS011;7362;50.956;4.184;2022-09-13T16:39:22;9.95;;;7.85;;
14550;SDS011;7362;50.956;4.184;2022-09-13T16:41:50;9.38;;;7.35;;
14550;SDS011;7362;50.956;4.184;2022-09-13T16:44:15;9.00;;;7.45;;
14550;SDS011;7362;50.956;4.184;2022-09-13T16:46:42;11.00;;;8.38;;
14550;SDS011;7362;50.956;4.184;2022-09-13T16:49:07;14.82;;;9.57;;
14550;SDS011;7362;50.956;4.184;2022-09-13T16:51:33;14.43;;;9.52;;
14550;SDS011;7362;50.956;4.184;2022-09-13T16:53:59;15.32;;;10.25;;
14550;SDS011;7362;50.956;4.184;2022-09-13T16:56:25;12.77;;;10.27;;
14550;SDS011;7362;50.956;4.184;2022-09-13T16:58:51;16.63;;;11.13;;
14550;SDS011;7362;50.956;4.184;2022-09-13T17:01:35;13.95;;;10.60;;
14550;SDS011;7362;50.956;4.184;2022-09-13T17:04:02;19.50;;;11.82;;
14550;SDS011;7362;50.956;4.184;2022-09-13T17:06:29;15.63;;;10.98;;
14550;SDS011;7362;50.956;4.184;2022-09-13T17:08:56;17.30;;;12.65;;
14550;SDS011;7362;50.956;4.184;2022-09-13T17:11:26;14.00;;;11.32;;
14550;SDS011;7362;50.956;4.184;2022-09-13T17:13:55;13.85;;;10.45;;
14550;SDS011;7362;50.956;4.184;2022-09-13T17:16:26;12.23;;;10.95;;
14550;SDS011;7362;50.956;4.184;2022-09-13T17:19:04;19.02;;;12.45;;
14550;SDS011;7362;50.956;4.184;2022-09-13T17:21:34;19.38;;;12.00;;
14550;SDS011;7362;50.956;4.184;2022-09-13T17:24:01;14.25;;;10.98;;
14550;SDS011;7362;50.956;4.184;2022-09-13T17:26:27;15.13;;;11.68;;
14550;SDS011;7362;50.956;4.184;2022-09-13T17:28:54;15.07;;;10.02;;
14550;SDS011;7362;50.956;4.184;2022-09-13T17:34:08;11.32;;;9.75;;
14550;SDS011;7362;50.956;4.184;2022-09-13T17:37:04;18.95;;;13.40;;
14550;SDS011;7362;50.956;4.184;2022-09-13T17:39:50;13.43;;;9.85;;
14550;SDS011;7362;50.956;4.184;2022-09-13T17:42:37;11.68;;;8.57;;
14550;SDS011;7362;50.956;4.184;2022-09-13T17:45:53;10.80;;;9.05;;
14550;SDS011;7362;50.956;4.184;2022-09-13T17:48:28;11.43;;;8.77;;
14550;SDS011;7362;50.956;4.184;2022-09-13T17:51:30;10.10;;;8.30;;
14550;SDS011;7362;50.956;4.184;2022-09-13T17:55:00;13.05;;;8.98;;
14550;SDS011;7362;50.956;4.184;2022-09-13T17:58:33;10.45;;;8.98;;
14550;SDS011;7362;50.956;4.184;2022-09-13T18:01:52;10.32;;;8.90;;
14550;SDS011;7362;50.956;4.184;2022-09-13T18:07:28;13.20;;;8.57;;
14550;SDS011;7362;50.956;4.184;2022-09-13T18:13:12;9.80;;;8.77;;
14550;SDS011;7362;50.956;4.184;2022-09-13T18:19:29;13.98;;;9.93;;
14550;SDS011;7362;50.956;4.184;2022-09-13T18:21:56;14.63;;;10.18;;
14550;SDS011;7362;50.956;4.184;2022-09-13T18:24:37;11.85;;;10.15;;
14550;SDS011;7362;50.956;4.184;2022-09-13T18:27:06;12.35;;;9.35;;
14550;SDS011;7362;50.956;4.184;2022-09-13T18:29:32;13.60;;;10.13;;
14550;SDS011;7362;50.956;4.184;2022-09-13T18:31:58;11.30;;;9.50;;
14550;SDS011;7362;50.956;4.184;2022-09-13T18:41:09;16.15;;;11.05;;
14550;SDS011;7362;50.956;4.184;2022-09-13T18:44:17;11.85;;;8.63;;
14550;SDS011;7362;50.956;4.184;2022-09-13T18:51:17;11.98;;;8.82;;
14550;SDS011;7362;50.956;4.184;2022-09-13T18:53:45;9.25;;;8.25;;
14550;SDS011;7362;50.956;4.184;2022-09-13T18:56:27;11.05;;;8.05;;
14550;SDS011;7362;50.956;4.184;2022-09-13T19:10:51;9.35;;;5.90;;
14550;SDS011;7362;50.956;4.184;2022-09-13T19:19:54;8.70;;;6.50;;
14550;SDS011;7362;50.956;4.184;2022-09-13T19:23:07;9.55;;;5.78;;
14550;SDS011;7362;50.956;4.184;2022-09-13T19:51:43;9.45;;;6.75;;
14550;SDS011;7362;50.956;4.184;2022-09-13T20:01:48;6.43;;;5.45;;
14550;SDS011;7362;50.956;4.184;2022-09-13T20:08:30;6.97;;;5.95;;
14550;SDS011;7362;50.956;4.184;2022-09-13T20:11:18;8.10;;;7.20;;
14550;SDS011;7362;50.956;4.184;2022-09-13T20:14:12;7.13;;;6.40;;
14550;SDS011;7362;50.956;4.184;2022-09-13T20:20:25;4.55;;;4.15;;
14550;SDS011;7362;50.956;4.184;2022-09-13T20:25:45;7.63;;;6.07;;
14550;SDS011;7362;50.956;4.184;2022-09-13T20:31:14;7.30;;;5.50;;
14550;SDS011;7362;50.956;4.184;2022-09-13T20:36:57;8.52;;;6.50;;
14550;SDS011;7362;50.956;4.184;2022-09-13T20:39:46;8.60;;;6.97;;
14550;SDS011;7362;50.956;4.184;2022-09-13T20:42:13;8.15;;;6.50;;
14550;SDS011;7362;50.956;4.184;2022-09-13T20:44:39;10.18;;;7.07;;
14550;SDS011;7362;50.956;4.184;2022-09-13T20:47:06;10.55;;;7.07;;
14550;SDS011;7362;50.956;4.184;2022-09-13T20:49:36;8.95;;;7.88;;
14550;SDS011;7362;50.956;4.184;2022-09-13T20:52:19;9.18;;;7.60;;
14550;SDS011;7362;50.956;4.184;2022-09-13T20:54:55;11.60;;;8.43;;
14550;SDS011;7362;50.956;4.184;2022-09-13T20:57:27;10.82;;;8.40;;
14550;SDS011;7362;50.956;4.184;2022-09-13T20:59:53;13.75;;;8.95;;
14550;SDS011;7362;50.956;4.184;2022-09-13T21:02:19;12.63;;;9.35;;
14550;SDS011;7362;50.956;4.184;2022-09-13T21:04:45;12.20;;;9.63;;
14550;SDS011;7362;50.956;4.184;2022-09-13T21:07:12;12.68;;;10.05;;
14550;SDS011;7362;50.956;4.184;2022-09-13T21:09:57;11.57;;;9.98;;
14550;SDS011;7362;50.956;4.184;2022-09-13T21:12:26;13.50;;;11.88;;
14550;SDS011;7362;50.956;4.184;2022-09-13T21:14:53;14.20;;;11.82;;
14550;SDS011;7362;50.956;4.184;2022-09-13T21:17:21;16.13;;;12.10;;
14550;SDS011;7362;50.956;4.184;2022-09-13T21:19:48;14.73;;;11.95;;
14550;SDS011;7362;50.956;4.184;2022-09-13T21:22:14;13.88;;;12.23;;
14550;SDS011;7362;50.956;4.184;2022-09-13T21:24:48;13.02;;;11.65;;
14550;SDS011;7362;50.956;4.184;2022-09-13T21:29:46;11.32;;;10.02;;
14550;SDS011;7362;50.956;4.184;2022-09-13T21:32:22;12.77;;;11.27;;
14550;SDS011;7362;50.956;4.184;2022-09-13T21:34:49;12.93;;;10.43;;
14550;SDS011;7362;50.956;4.184;2022-09-13T21:37:17;11.77;;;9.48;;
14550;SDS011;7362;50.956;4.184;2022-09-13T21:39:46;11.65;;;9.93;;
14550;SDS011;7362;50.956;4.184;2022-09-13T21:44:51;10.95;;;9.25;;
14550;SDS011;7362;50.956;4.184;2022-09-13T21:47:17;9.57;;;8.50;;
14550;SDS011;7362;50.956;4.184;2022-09-13T21:49:44;10.68;;;9.15;;
14550;SDS011;7362;50.956;4.184;2022-09-13T21:52:11;8.25;;;7.45;;
14550;SDS011;7362;50.956;4.184;2022-09-13T21:54:37;8.63;;;7.07;;
14550;SDS011;7362;50.956;4.184;2022-09-13T21:57:04;10.10;;;7.43;;
14550;SDS011;7362;50.956;4.184;2022-09-13T21:59:30;12.00;;;7.03;;